Time;durP1;ratioP1;P1;durP2;ratioP2;P2;SDS_P1;SDS_P2;PMS_P1;PMS_P2;Temp;Humidity;BMP_temperature;BMP_pressure;BME280_temperature;BME280_humidity;BME280_pressure;Samples;Min_cycle;Max_cycle;Signal;HPM_P1;HPM_P2
2023/05/22 00:00:17;;;;;;;6.37;4.60;;;19.80;99.90;;;20.25;69.83;100164.50;5009584;28;20685;-68
2023/05/22 00:02:44;;;;;;;6.50;4.40;;;19.80;99.90;;;20.23;69.71;100168.31;5019031;28;20670;-68
2023/05/22 00:05:13;;;;;;;5.40;4.60;;;19.80;99.90;;;20.20;70.12;100171.28;5026690;28;20640;-68
2023/05/22 00:07:41;;;;;;;7.60;5.13;;;19.70;99.90;;;20.18;69.92;100166.19;5017519;28;20635;-68
2023/05/22 00:10:10;;;;;;;7.93;5.67;;;19.70;99.90;;;20.16;70.19;100172.66;5030613;28;21397;-71
2023/05/22 00:12:37;;;;;;;7.80;5.87;;;19.70;99.90;;;20.11;70.57;100173.22;5020071;28;20633;-68
2023/05/22 00:15:04;;;;;;;9.47;6.20;;;19.70;99.90;;;20.07;70.44;100171.94;5028964;28;20675;-70
2023/05/22 00:17:32;;;;;;;8.87;5.60;;;19.70;99.90;;;20.06;70.88;100168.47;5018159;28;20664;-69
2023/05/22 00:20:07;;;;;;;9.77;6.40;;;19.60;99.90;;;20.02;71.27;100164.53;5044612;28;20651;-69
2023/05/22 00:22:34;;;;;;;12.77;7.50;;;19.60;99.90;;;19.98;71.61;100176.50;5024932;28;20612;-70
2023/05/22 00:25:05;;;;;;;10.07;6.30;;;19.60;99.90;;;19.92;72.01;100166.63;5027204;28;20621;-67
2023/05/22 00:27:33;;;;;;;11.20;7.10;;;19.40;99.90;;;19.87;72.09;100168.16;5008774;28;20672;-69
2023/05/22 00:30:00;;;;;;;8.43;6.13;;;19.40;99.90;;;19.86;72.05;100171.81;5028117;28;20694;-70
2023/05/22 00:32:27;;;;;;;11.10;6.43;;;19.40;99.90;;;19.80;72.59;100168.09;5023784;28;20752;-68
2023/05/22 00:34:54;;;;;;;7.60;5.50;;;19.30;99.90;;;19.80;72.78;100172.56;5010874;28;20629;-67
2023/05/22 00:37:22;;;;;;;8.47;6.00;;;19.30;99.90;;;19.79;72.89;100162.94;5018703;28;20695;-67
2023/05/22 00:39:49;;;;;;;6.53;4.80;;;19.30;99.90;;;19.81;72.92;100169.72;5013252;28;20655;-68
2023/05/22 00:42:17;;;;;;;6.03;4.57;;;19.30;99.90;;;19.81;72.77;100164.41;5008422;28;21218;-67
2023/05/22 00:44:44;;;;;;;6.90;5.00;;;19.30;99.90;;;19.75;73.01;100164.31;5011228;28;20601;-71
2023/05/22 00:47:11;;;;;;;8.03;4.73;;;19.30;99.90;;;19.70;73.61;100156.91;5024846;28;20645;-69
2023/05/22 00:49:40;;;;;;;7.17;4.90;;;19.20;99.90;;;19.67;73.80;100167.88;5048482;28;20675;-69
2023/05/22 00:52:08;;;;;;;7.40;5.10;;;19.20;99.90;;;19.65;74.11;100167.25;5015939;28;21199;-69
2023/05/22 00:54:35;;;;;;;10.50;6.23;;;19.20;99.90;;;19.63;74.34;100166.59;5029484;28;20723;-68
2023/05/22 00:57:03;;;;;;;8.20;5.17;;;19.20;99.90;;;19.61;74.52;100162.47;5011375;28;20661;-68
2023/05/22 00:59:30;;;;;;;9.10;5.80;;;19.10;99.90;;;19.61;74.35;100165.97;5009304;28;20753;-71
2023/05/22 01:01:58;;;;;;;8.63;5.63;;;19.10;99.90;;;19.56;74.47;100170.13;5025854;28;20723;-69
2023/05/22 01:04:25;;;;;;;9.97;6.67;;;19.10;99.90;;;19.54;75.00;100167.66;5032845;28;20615;-71
2023/05/22 01:06:53;;;;;;;8.27;6.00;;;19.10;99.90;;;19.53;75.28;100167.84;5016062;28;20678;-71
2023/05/22 01:09:20;;;;;;;9.73;6.03;;;19.10;99.90;;;19.52;75.01;100174.97;5024440;28;20685;-69
2023/05/22 01:12:09;;;;;;;8.70;5.80;;;19.10;99.90;;;19.49;75.45;100172.66;5030533;28;20707;-68
2023/05/22 01:14:57;;;;;;;10.07;5.80;;;19.10;99.90;;;19.47;75.18;100166.72;5026938;28;21297;-67
2023/05/22 01:18:09;;;;;;;10.63;6.57;;;19.10;99.90;;;19.47;75.34;100168.53;5017699;28;20657;-68
2023/05/22 01:21:04;;;;;;;11.23;6.30;;;19.00;99.90;;;19.44;75.92;100171.56;5027885;28;20711;-71
2023/05/22 01:24:12;;;;;;;10.17;6.97;;;19.00;99.90;;;19.38;75.83;100178.38;5016086;28;20707;-68
2023/05/22 01:27:16;;;;;;;11.20;5.97;;;19.00;99.90;;;19.30;76.44;100186.34;5032739;28;21264;-69
2023/05/22 01:29:59;;;;;;;5.90;4.53;;;18.90;99.90;;;19.29;76.58;100184.72;5038515;28;21262;-70
2023/05/22 01:32:28;;;;;;;10.37;6.50;;;18.80;99.90;;;19.24;76.87;100187.88;5027401;28;20639;-68
2023/05/22 01:35:00;;;;;;;10.33;5.77;;;18.80;99.90;;;19.26;76.70;100190.34;4994812;28;21265;-69
2023/05/22 01:37:27;;;;;;;11.00;5.50;;;18.80;99.90;;;19.23;77.29;100185.38;5027142;28;21080;-71
2023/05/22 01:39:55;;;;;;;8.47;5.70;;;18.80;99.90;;;19.16;77.34;100181.81;5031654;28;21008;-68
2023/05/22 01:42:22;;;;;;;9.30;5.93;;;18.70;99.90;;;19.07;77.71;100183.69;5016988;28;20643;-70
2023/05/22 01:44:49;;;;;;;8.90;6.03;;;18.60;99.90;;;19.00;78.49;100179.28;5008887;28;20653;-72
2023/05/22 01:47:16;;;;;;;8.77;5.90;;;18.60;99.90;;;18.96;78.77;100183.25;5019670;28;20633;-70
2023/05/22 01:49:46;;;;;;;10.17;6.80;;;18.50;99.90;;;18.93;79.05;100173.84;5044672;28;20657;-70
2023/05/22 01:52:34;;;;;;;8.57;5.47;;;18.50;99.90;;;18.96;78.94;100177.97;5030858;28;20694;-69
2023/05/22 01:55:12;;;;;;;6.90;4.97;;;18.50;99.90;;;18.96;78.99;100180.63;5029385;28;20679;-70
2023/05/22 01:58:16;;;;;;;8.83;5.00;;;18.50;99.90;;;18.98;78.84;100183.91;5025680;28;20746;-70
2023/05/22 02:00:45;;;;;;;7.90;5.33;;;18.60;99.90;;;18.98;79.40;100189.19;5029367;28;20621;-69
2023/05/22 02:03:21;;;;;;;7.27;5.30;;;18.60;99.90;;;18.92;79.51;100187.25;5030063;28;21075;-68
2023/05/22 02:05:53;;;;;;;6.97;4.73;;;18.50;99.90;;;18.78;80.34;100180.09;5012294;28;20619;-69
2023/05/22 02:08:22;;;;;;;7.33;5.00;;;18.30;99.90;;;18.66;80.70;100189.38;5020619;28;20640;-68
2023/05/22 02:10:50;;;;;;;10.30;6.30;;;18.20;99.90;;;18.59;81.61;100187.41;5014001;28;20667;-69
2023/05/22 02:13:17;;;;;;;6.47;5.17;;;18.10;99.90;;;18.59;81.63;100183.97;5028276;28;20628;-68
2023/05/22 02:15:45;;;;;;;8.60;5.90;;;18.10;99.90;;;18.56;81.86;100181.66;5033021;28;20628;-70
2023/05/22 02:18:12;;;;;;;9.77;6.07;;;18.10;99.90;;;18.52;81.94;100188.28;5007996;28;20675;-71
2023/05/22 02:20:40;;;;;;;7.47;5.30;;;18.10;99.90;;;18.51;82.37;100187.47;5012887;28;20701;-69
2023/05/22 02:23:08;;;;;;;11.20;6.40;;;18.10;99.90;;;18.49;82.58;100181.53;5030976;28;21189;-68
2023/05/22 02:25:35;;;;;;;11.30;7.30;;;18.10;99.90;;;18.52;82.41;100183.84;5047356;28;20617;-68
2023/05/22 02:28:02;;;;;;;6.80;5.00;;;18.10;99.90;;;18.52;82.29;100178.56;5026206;28;20644;-71
2023/05/22 02:30:29;;;;;;;6.57;4.90;;;18.10;99.90;;;18.53;82.23;100179.34;5048243;28;20643;-68
2023/05/22 02:32:58;;;;;;;8.00;5.57;;;18.10;99.90;;;18.53;82.26;100185.47;5041979;28;20650;-68
2023/05/22 02:35:25;;;;;;;12.00;7.40;;;18.10;99.90;;;18.52;82.19;100191.78;5042091;28;20738;-68
2023/05/22 02:37:52;;;;;;;9.47;5.80;;;18.10;99.90;;;18.53;82.75;100190.75;5033125;28;20669;-70
2023/05/22 02:40:19;;;;;;;10.13;5.87;;;18.10;99.90;;;18.55;82.21;100186.13;5012642;28;21252;-68
2023/05/22 02:42:46;;;;;;;8.27;5.30;;;18.10;99.90;;;18.58;82.14;100185.78;5024101;28;21239;-71
2023/05/22 02:45:13;;;;;;;6.17;4.40;;;18.10;99.90;;;18.63;81.90;100179.16;5031499;28;21394;-72
2023/05/22 02:47:40;;;;;;;10.00;5.93;;;18.20;99.90;;;18.64;81.54;100172.88;5028800;28;20636;-68
2023/05/22 02:50:08;;;;;;;11.83;5.10;;;18.20;99.90;;;18.62;81.25;100185.44;5027050;28;21236;-73
2023/05/22 02:52:35;;;;;;;8.40;5.40;;;18.20;99.90;;;18.62;81.56;100193.34;5043364;28;21245;-70
2023/05/22 02:55:03;;;;;;;9.17;5.40;;;18.20;99.90;;;18.61;81.38;100189.91;5012962;28;20648;-67
2023/05/22 02:57:30;;;;;;;13.23;5.33;;;18.20;99.90;;;18.57;81.57;100192.06;5045665;28;20651;-68
2023/05/22 02:59:58;;;;;;;6.70;5.30;;;18.20;99.90;;;18.56;81.41;100181.66;5010300;28;20657;-68
2023/05/22 03:02:27;;;;;;;7.90;5.63;;;18.20;99.90;;;18.57;81.36;100186.78;5020579;28;21447;-68
2023/05/22 03:04:57;;;;;;;8.93;5.20;;;18.20;99.90;;;18.55;81.42;100191.41;5045954;28;20682;-69
2023/05/22 03:07:28;;;;;;;10.37;5.67;;;18.20;99.90;;;18.53;81.56;100189.94;5010749;28;21076;-68
2023/05/22 03:09:55;;;;;;;7.80;5.50;;;18.10;99.90;;;18.41;81.73;100186.81;5040690;28;20682;-69
2023/05/22 03:12:22;;;;;;;8.37;5.17;;;18.00;99.90;;;18.28;82.59;100183.91;5030607;28;20641;-68
2023/05/22 03:14:49;;;;;;;12.53;5.60;;;17.90;99.90;;;18.24;83.00;100187.03;5049239;28;20600;-69
2023/05/22 03:17:17;;;;;;;9.03;6.03;;;17.80;99.90;;;18.18;83.24;100190.38;5033669;28;20640;-68
2023/05/22 03:19:44;;;;;;;10.40;6.10;;;17.80;99.90;;;18.15;83.74;100182.78;5035108;28;20730;-70
2023/05/22 03:22:10;;;;;;;10.80;6.10;;;17.70;99.90;;;18.11;83.86;100192.84;5050572;28;20619;-68
2023/05/22 03:24:38;;;;;;;11.33;5.60;;;17.70;99.90;;;18.14;84.10;100186.41;5044067;28;20636;-72
2023/05/22 03:27:05;;;;;;;9.67;5.80;;;17.70;99.90;;;18.16;83.99;100195.81;5047491;28;20671;-67
2023/05/22 03:29:32;;;;;;;9.33;5.80;;;17.80;99.90;;;18.16;83.69;100198.47;5037098;28;20713;-70
2023/05/22 03:31:59;;;;;;;7.50;5.10;;;17.80;99.90;;;18.16;83.60;100197.63;5050611;28;20623;-68
2023/05/22 03:34:28;;;;;;;9.60;5.77;;;17.70;99.90;;;18.11;83.94;100195.50;5011756;28;20664;-70
2023/05/22 03:36:58;;;;;;;10.50;6.27;;;17.70;99.90;;;18.10;83.85;100199.13;5022858;28;20640;-70
2023/05/22 03:39:28;;;;;;;10.60;6.47;;;17.70;99.90;;;18.09;84.02;100204.56;5021059;28;20688;-68
2023/05/22 03:41:55;;;;;;;9.83;5.80;;;17.70;99.90;;;18.04;84.00;100207.72;5021244;28;20628;-68
2023/05/22 03:44:23;;;;;;;10.67;6.60;;;17.60;99.90;;;17.98;84.61;100204.91;5014680;28;20677;-71
2023/05/22 03:46:50;;;;;;;12.87;6.87;;;17.60;99.90;;;17.96;84.69;100210.38;5020424;28;20732;-67
2023/05/22 03:49:17;;;;;;;13.17;6.83;;;17.60;99.90;;;17.93;84.97;100210.69;5033675;28;20723;-69
2023/05/22 03:51:44;;;;;;;10.57;6.87;;;17.50;99.90;;;17.89;85.22;100203.31;5018834;28;21308;-69
2023/05/22 03:54:11;;;;;;;12.13;6.97;;;17.50;99.90;;;17.91;85.61;100207.41;5029697;28;20636;-69
2023/05/22 03:56:38;;;;;;;8.53;5.90;;;17.50;99.90;;;17.96;85.43;100204.25;5016106;28;20656;-70
2023/05/22 03:59:05;;;;;;;9.03;6.70;;;17.60;99.90;;;18.03;84.79;100210.53;5017746;28;20681;-69
2023/05/22 04:01:32;;;;;;;11.20;7.03;;;17.60;99.90;;;18.02;84.41;100204.41;5022511;28;20687;-68
2023/05/22 04:03:59;;;;;;;10.43;6.60;;;17.60;99.90;;;18.02;84.61;100212.34;5015015;28;20613;-68
2023/05/22 04:06:26;;;;;;;13.60;7.30;;;17.60;99.90;;;18.04;84.63;100209.56;5010383;28;20606;-72
2023/05/22 04:08:53;;;;;;;9.57;5.87;;;17.60;99.90;;;18.08;84.74;100213.50;5008447;28;20688;-69
2023/05/22 04:11:21;;;;;;;13.30;6.50;;;17.70;99.90;;;18.11;84.46;100215.78;5021694;28;20625;-68
2023/05/22 04:13:49;;;;;;;8.30;5.50;;;17.70;99.90;;;18.16;84.45;100216.13;5017083;28;20652;-68
2023/05/22 04:16:17;;;;;;;8.77;5.63;;;17.70;99.90;;;18.19;84.30;100213.13;5022796;28;21242;-72
2023/05/22 04:18:44;;;;;;;9.60;5.90;;;17.80;99.90;;;18.22;84.03;100223.34;5026128;28;21201;-68
2023/05/22 04:21:11;;;;;;;9.80;5.60;;;17.80;99.90;;;18.27;83.65;100219.19;5035947;28;21227;-69
2023/05/22 04:23:42;;;;;;;9.07;5.57;;;17.80;99.90;;;18.33;83.17;100223.84;5029792;28;20666;-67
2023/05/22 04:26:09;;;;;;;10.00;5.50;;;17.90;99.90;;;18.36;82.85;100220.84;5024990;28;20740;-68
2023/05/22 04:28:36;;;;;;;8.00;5.07;;;17.90;99.90;;;18.31;83.07;100231.09;5027948;28;20760;-68
2023/05/22 04:31:05;;;;;;;8.97;5.73;;;17.90;99.90;;;18.35;82.94;100232.41;5023868;28;21017;-66
2023/05/22 04:33:33;;;;;;;10.73;6.10;;;17.90;99.90;;;18.39;82.78;100223.16;5032320;28;20702;-68
2023/05/22 04:36:01;;;;;;;9.87;5.77;;;18.00;99.90;;;18.47;82.40;100236.34;5035347;28;20635;-68
2023/05/22 04:38:28;;;;;;;10.83;6.60;;;18.00;99.90;;;18.56;81.93;100239.78;5027402;28;20734;-70
2023/05/22 04:40:56;;;;;;;11.10;6.53;;;18.10;99.90;;;18.64;81.49;100242.41;5013175;28;20668;-69
2023/05/22 04:43:25;;;;;;;10.93;6.20;;;18.20;99.90;;;18.71;81.07;100237.25;5024550;28;20670;-68
2023/05/22 04:45:53;;;;;;;9.20;5.27;;;18.30;99.90;;;18.77;80.83;100239.22;5024030;28;21157;-70
2023/05/22 04:48:21;;;;;;;8.73;5.70;;;18.30;99.90;;;18.83;80.48;100239.34;5014702;28;21188;-68
2023/05/22 04:50:49;;;;;;;10.27;7.20;;;18.40;99.90;;;18.93;80.35;100241.78;5035436;28;20641;-67
2023/05/22 04:53:16;;;;;;;8.23;6.30;;;18.50;99.90;;;19.04;79.92;100242.22;5017154;28;21100;-68
2023/05/22 04:55:43;;;;;;;10.83;6.37;;;18.60;99.90;;;19.13;79.19;100240.34;5028374;28;20629;-67
2023/05/22 04:58:10;;;;;;;9.13;6.20;;;18.70;99.90;;;19.25;79.35;100241.59;5008338;28;20667;-69
2023/05/22 05:00:37;;;;;;;9.17;7.13;;;18.80;99.90;;;19.38;78.45;100243.69;5021797;28;20723;-69
2023/05/22 05:03:06;;;;;;;10.67;7.40;;;18.90;99.90;;;19.51;77.89;100241.25;5021035;28;20645;-69
2023/05/22 05:05:34;;;;;;;10.37;6.60;;;19.10;99.90;;;19.62;77.52;100239.03;5022619;28;20625;-70
2023/05/22 05:08:01;;;;;;;9.13;6.50;;;19.20;99.90;;;19.80;77.28;100247.50;5016865;28;21204;-68
2023/05/22 05:10:28;;;;;;;10.53;6.97;;;19.30;99.90;;;19.96;76.54;100251.81;5023722;28;20653;-71
2023/05/22 05:12:55;;;;;;;9.20;6.37;;;19.50;99.90;;;20.13;75.83;100246.19;5026978;28;20755;-68
2023/05/22 05:15:22;;;;;;;8.83;6.10;;;19.60;99.90;;;20.29;74.29;100247.06;5026878;28;20733;-67
2023/05/22 05:17:49;;;;;;;10.00;6.80;;;19.80;99.90;;;20.41;73.66;100245.59;5022974;28;20761;-68
2023/05/22 05:20:16;;;;;;;8.83;6.50;;;20.00;99.90;;;20.52;72.68;100243.31;5024371;28;20688;-69
2023/05/22 05:22:44;;;;;;;9.30;6.67;;;20.00;99.90;;;20.67;72.65;100240.66;5011073;28;20625;-68
2023/05/22 05:25:12;;;;;;;7.33;6.13;;;20.20;99.90;;;20.90;72.21;100246.66;5040965;28;21117;-67
2023/05/22 05:27:39;;;;;;;9.33;6.53;;;20.40;99.90;;;21.11;71.46;100252.03;5052075;28;20611;-73
2023/05/22 05:30:07;;;;;;;8.37;6.17;;;20.60;99.90;;;21.28;70.81;100248.13;5017569;28;20667;-69
2023/05/22 05:32:34;;;;;;;8.90;5.87;;;20.80;99.90;;;21.40;70.06;100243.97;5032879;28;20608;-71
2023/05/22 05:35:01;;;;;;;10.20;7.20;;;20.90;99.90;;;21.50;69.52;100246.31;5032149;28;20652;-68
2023/05/22 05:37:28;;;;;;;10.33;6.47;;;21.00;99.90;;;21.63;69.47;100247.28;5014543;28;21150;-70
2023/05/22 05:39:55;;;;;;;9.63;5.77;;;21.10;99.90;;;21.78;68.65;100252.50;5014343;28;20739;-69
2023/05/22 05:42:22;;;;;;;9.40;6.40;;;21.30;99.90;;;21.91;68.36;100247.34;5013326;28;20987;-70
2023/05/22 05:44:49;;;;;;;9.80;6.37;;;21.40;99.90;;;22.07;67.17;100248.88;5020370;28;20624;-69
2023/05/22 05:47:16;;;;;;;9.47;6.70;;;21.60;99.90;;;22.24;66.72;100251.03;5030033;28;20636;-69
2023/05/22 05:49:43;;;;;;;9.90;6.67;;;21.70;99.90;;;22.46;65.63;100249.16;5032576;28;20689;-69
2023/05/22 05:52:10;;;;;;;9.47;6.03;;;21.90;99.90;;;22.61;64.53;100249.03;5031383;28;20621;-69
2023/05/22 05:54:37;;;;;;;10.97;6.80;;;22.10;99.90;;;22.77;64.58;100254.84;5031527;28;20651;-69
2023/05/22 05:57:05;;;;;;;9.03;6.50;;;22.30;99.90;;;22.92;63.35;100249.38;5024857;28;20649;-66
2023/05/22 05:59:32;;;;;;;9.73;6.87;;;22.50;99.90;;;23.17;62.74;100253.97;5026245;28;20665;-69
2023/05/22 06:01:59;;;;;;;10.70;7.40;;;22.70;99.90;;;23.39;61.45;100253.84;5027056;28;20724;-70
2023/05/22 06:04:27;;;;;;;9.70;6.83;;;22.90;99.90;;;23.60;60.73;100262.50;5028061;28;21268;-70
2023/05/22 06:06:54;;;;;;;7.77;6.00;;;23.10;99.90;;;23.87;60.52;100264.13;5033009;28;20602;-68
2023/05/22 06:09:21;;;;;;;8.60;6.00;;;23.40;99.90;;;24.07;59.72;100264.16;5028719;28;20744;-70
2023/05/22 06:11:48;;;;;;;7.47;5.23;;;23.60;99.90;;;24.31;58.75;100270.72;5018281;28;20832;-67
2023/05/22 06:14:15;;;;;;;7.37;5.80;;;23.90;99.90;;;24.66;58.00;100277.38;5027473;28;20708;-69
2023/05/22 06:16:42;;;;;;;10.17;6.90;;;24.10;99.90;;;24.99;56.74;100274.63;5025463;28;20633;-68
2023/05/22 06:19:10;;;;;;;7.70;5.80;;;24.50;99.90;;;25.31;56.47;100277.16;5012579;28;20764;-69
2023/05/22 06:21:37;;;;;;;8.20;6.77;;;24.80;99.90;;;25.74;55.32;100273.81;5023615;28;20695;-69
2023/05/22 06:24:04;;;;;;;11.57;6.40;;;25.20;99.90;;;26.05;54.32;100271.91;5012514;28;20948;-69
2023/05/22 06:26:32;;;;;;;10.43;7.00;;;25.60;99.90;;;26.40;54.08;100274.91;5016193;28;20740;-72
2023/05/22 06:28:59;;;;;;;10.20;7.37;;;25.90;99.90;;;26.79;52.74;100279.06;5042026;28;20834;-69
2023/05/22 06:31:26;;;;;;;8.07;7.17;;;26.40;99.90;;;27.05;52.04;100280.56;5032695;28;21196;-69
2023/05/22 06:33:54;;;;;;;8.53;6.97;;;26.60;99.90;;;27.56;50.97;100283.59;5023762;28;20648;-71
2023/05/22 06:36:21;;;;;;;7.80;6.00;;;27.10;99.90;;;27.91;49.63;100281.00;5028050;28;20620;-71
2023/05/22 06:38:48;;;;;;;8.83;6.30;;;27.50;99.90;;;28.14;49.32;100281.03;5014967;28;20696;-69
2023/05/22 06:41:15;;;;;;;10.80;7.80;;;27.80;99.60;;;28.29;48.84;100271.50;5016424;28;20629;-75
2023/05/22 06:43:42;;;;;;;10.03;6.37;;;28.00;98.90;;;28.47;47.83;100275.91;5017001;28;20637;-72
2023/05/22 06:46:09;;;;;;;9.37;7.03;;;28.10;98.40;;;28.78;47.46;100280.91;5019540;28;20633;-70
2023/05/22 06:48:36;;;;;;;10.57;7.17;;;28.40;97.80;;;29.35;46.86;100278.28;5022589;28;20656;-70
2023/05/22 06:51:03;;;;;;;12.47;8.97;;;28.80;97.30;;;29.93;45.40;100278.78;5030039;28;20636;-68
2023/05/22 06:53:30;;;;;;;10.63;6.20;;;29.40;96.20;;;30.16;43.81;100275.91;5026368;28;20719;-70
2023/05/22 06:55:57;;;;;;;9.70;6.30;;;29.70;94.70;;;30.38;43.65;100284.91;5026380;28;20680;-70
2023/05/22 06:58:24;;;;;;;10.63;7.87;;;30.00;94.00;;;30.81;42.87;100278.75;5030838;28;20684;-72
2023/05/22 07:00:52;;;;;;;12.00;8.17;;;30.40;93.10;;;31.20;41.64;100280.28;5030552;28;21098;-69
2023/05/22 07:03:20;;;;;;;10.00;7.70;;;30.80;92.10;;;31.59;41.09;100289.06;5023367;28;20687;-70
2023/05/22 07:05:47;;;;;;;8.57;7.00;;;31.20;91.00;;;32.27;40.01;100298.28;5022667;28;20641;-70
2023/05/22 07:08:14;;;;;;;10.70;7.33;;;31.70;90.10;;;32.96;38.72;100297.06;5023462;28;20736;-69
2023/05/22 07:10:41;;;;;;;10.07;7.40;;;32.40;87.50;;;33.43;37.04;100289.66;5029727;28;20676;-69
2023/05/22 07:13:08;;;;;;;9.87;7.80;;;33.00;83.60;;;34.02;36.95;100292.69;5029375;28;21295;-68
2023/05/22 07:15:35;;;;;;;8.60;6.90;;;33.50;81.90;;;34.55;34.96;100299.41;5031195;28;20587;-68
2023/05/22 07:18:03;;;;;;;9.47;7.67;;;34.10;78.70;;;34.35;35.31;100302.13;5024502;28;20640;-68
2023/05/22 07:20:30;;;;;;;9.00;6.67;;;34.10;76.70;;;34.36;34.46;100301.84;5031204;28;20669;-69
2023/05/22 07:22:57;;;;;;;8.10;7.30;;;34.10;74.80;;;34.07;35.76;100298.13;5022982;28;20629;-70
2023/05/22 07:25:24;;;;;;;8.93;7.67;;;33.90;74.30;;;34.33;35.70;100301.59;5028073;28;20601;-71
2023/05/22 07:27:51;;;;;;;7.97;7.17;;;34.10;74.30;;;34.56;34.62;100301.03;5024315;28;21079;-69
2023/05/22 07:30:18;;;;;;;8.30;7.50;;;34.40;72.60;;;34.78;34.45;100300.66;5017166;28;20665;-71
2023/05/22 07:32:45;;;;;;;8.13;6.37;;;34.60;71.50;;;35.15;34.39;100305.69;5030623;28;20651;-71
2023/05/22 07:35:12;;;;;;;7.67;6.87;;;34.90;71.00;;;35.52;33.42;100304.13;5027137;28;20720;-69
2023/05/22 07:37:40;;;;;;;8.50;7.40;;;35.30;69.90;;;36.00;32.73;100307.84;5016963;28;20675;-68
2023/05/22 07:40:08;;;;;;;8.80;7.60;;;35.70;68.40;;;36.46;32.26;100300.88;5025238;28;20668;-69
2023/05/22 07:42:36;;;;;;;8.33;7.20;;;36.20;67.30;;;36.81;31.10;100309.72;5026411;28;20687;-72
2023/05/22 07:45:04;;;;;;;7.63;6.87;;;36.50;65.80;;;37.07;30.48;100309.16;5018842;28;20662;-69
2023/05/22 07:47:31;;;;;;;8.67;7.77;;;36.80;64.70;;;37.21;30.45;100309.22;5021873;28;20736;-74
2023/05/22 07:49:58;;;;;;;6.73;6.13;;;37.00;64.10;;;37.23;30.51;100307.03;5026578;28;20679;-71
2023/05/22 07:52:25;;;;;;;8.00;7.20;;;37.00;63.50;;;37.48;30.50;100303.97;5027521;28;20672;-72
2023/05/22 07:54:52;;;;;;;10.37;9.00;;;37.40;63.00;;;37.66;30.26;100302.31;5018564;28;21228;-69
2023/05/22 07:57:20;;;;;;;9.90;8.67;;;37.60;62.30;;;37.90;30.04;100292.97;5033175;28;20616;-69
2023/05/22 07:59:47;;;;;;;12.60;10.00;;;37.80;61.70;;;37.99;29.56;100302.06;5028851;28;21289;-66
2023/05/22 08:02:14;;;;;;;8.33;7.37;;;37.90;61.10;;;38.18;28.98;100299.28;5024539;28;20736;-69
2023/05/22 08:04:43;;;;;;;7.70;6.93;;;38.10;60.30;;;38.65;28.73;100309.88;5050026;28;21232;-70
2023/05/22 08:07:10;;;;;;;9.10;8.20;;;38.80;58.80;;;39.03;29.07;100310.47;5019782;28;20641;-69
2023/05/22 08:09:37;;;;;;;7.47;6.80;;;38.80;59.60;;;38.95;28.99;100310.38;5031520;28;20655;-71
2023/05/22 08:12:05;;;;;;;10.30;9.20;;;38.90;58.70;;;38.92;28.66;100309.06;5009443;28;20728;-69
2023/05/22 08:14:33;;;;;;;10.40;9.30;;;38.90;58.30;;;38.93;28.97;100310.69;5025373;28;20597;-69
2023/05/22 08:17:00;;;;;;;12.00;9.07;;;38.90;58.30;;;38.89;28.61;100312.38;5024566;28;20662;-70
2023/05/22 08:19:27;;;;;;;10.70;9.27;;;38.90;57.70;;;38.75;28.41;100309.69;5024283;28;20750;-72
2023/05/22 08:21:56;;;;;;;8.40;7.60;;;38.80;57.70;;;38.70;28.45;100311.69;5017541;28;20628;-70
2023/05/22 08:24:29;;;;;;;7.90;7.17;;;38.70;57.60;;;38.79;28.37;100309.88;5036905;28;20629;-74
2023/05/22 08:26:59;;;;;;;9.27;8.30;;;38.80;57.20;;;38.73;28.89;100313.81;5029952;28;20721;-72
2023/05/22 08:29:27;;;;;;;9.57;8.57;;;38.70;57.00;;;38.43;28.95;100307.03;5035842;28;20639;-71
2023/05/22 08:31:55;;;;;;;9.83;8.77;;;38.40;57.10;;;38.13;29.64;100306.72;5015364;28;21254;-68
2023/05/22 08:34:23;;;;;;;10.30;9.20;;;38.10;57.50;;;37.99;29.40;100315.69;5041221;28;20686;-69
2023/05/22 08:36:50;;;;;;;11.90;8.90;;;37.90;57.80;;;38.10;29.65;100310.84;5034310;28;20682;-68
2023/05/22 08:39:17;;;;;;;11.07;9.70;;;38.10;57.70;;;37.87;30.25;100309.09;5038455;28;20758;-69
2023/05/22 08:41:46;;;;;;;9.27;7.83;;;38.00;57.40;;;37.67;30.31;100306.69;5007624;28;20712;-66
2023/05/22 08:44:13;;;;;;;9.60;8.60;;;37.70;57.60;;;37.84;30.01;100302.34;5023892;28;21078;-69
2023/05/22 08:46:40;;;;;;;9.37;8.47;;;37.80;57.80;;;37.97;30.45;100298.03;5027074;28;21424;-68
2023/05/22 08:49:12;;;;;;;8.60;7.37;;;37.90;58.00;;;37.88;30.30;100305.28;5018235;28;20660;-68
2023/05/22 08:51:43;;;;;;;6.90;5.83;;;37.80;58.00;;;38.02;30.65;100296.03;5029857;28;20663;-68
2023/05/22 08:54:11;;;;;;;6.97;6.27;;;37.80;58.20;;;38.32;29.04;100296.59;5024097;28;20625;-70
2023/05/22 08:56:39;;;;;;;11.93;7.10;;;38.00;56.90;;;37.92;29.59;100289.94;5023347;28;20630;-67
2023/05/22 08:59:22;;;;;;;8.93;7.63;;;37.80;56.90;;;37.15;30.42;100286.75;5032095;28;20664;-69
2023/05/22 09:01:51;;;;;;;8.87;7.17;;;37.10;57.70;;;35.35;32.83;100289.31;5031375;28;21275;-70
2023/05/22 09:04:22;;;;;;;8.70;7.30;;;35.60;59.10;;;33.90;35.60;100288.63;5024374;28;20708;-68
2023/05/22 09:06:50;;;;;;;8.10;6.70;;;34.10;61.30;;;33.31;35.74;100286.38;5021441;28;21228;-72
2023/05/22 09:09:17;;;;;;;10.83;7.97;;;33.20;62.70;;;32.94;36.67;100284.88;5043402;28;20682;-70
2023/05/22 09:11:44;;;;;;;12.67;8.17;;;32.70;63.70;;;32.55;37.84;100276.34;5029363;28;20697;-70
2023/05/22 09:14:11;;;;;;;9.87;7.00;;;32.30;64.50;;;32.13;38.64;100284.44;5045008;28;20605;-68
2023/05/22 09:16:51;;;;;;;9.93;7.60;;;31.90;65.40;;;31.97;38.89;100271.88;5032714;28;21100;-67
2023/05/22 09:19:18;;;;;;;10.40;7.50;;;31.60;66.00;;;32.19;38.56;100277.97;5037537;28;21243;-68
2023/05/22 09:21:46;;;;;;;9.87;7.13;;;31.70;65.80;;;32.07;38.60;100278.16;5027191;28;20704;-69
2023/05/22 09:24:13;;;;;;;11.83;7.37;;;31.70;65.90;;;31.77;39.04;100282.50;5053637;28;20645;-69
2023/05/22 09:26:41;;;;;;;9.40;7.67;;;31.40;66.20;;;31.49;39.84;100278.19;5018740;28;20649;-70
2023/05/22 09:29:08;;;;;;;8.23;6.90;;;31.10;66.70;;;31.42;39.98;100280.28;5046690;28;20643;-71
2023/05/22 09:31:42;;;;;;;9.77;7.27;;;31.00;67.50;;;31.53;40.01;100284.72;5010448;28;20644;-66
2023/05/22 09:34:12;;;;;;;8.60;6.70;;;31.00;67.60;;;31.51;39.82;100281.47;5032774;28;20610;-69
2023/05/22 09:36:40;;;;;;;11.00;7.13;;;31.00;68.20;;;31.28;40.22;100276.34;5030747;28;22209;-70
2023/05/22 09:39:08;;;;;;;10.47;6.87;;;30.90;68.00;;;30.90;40.72;100269.16;5017618;28;20736;-66
2023/05/22 09:41:38;;;;;;;11.40;8.10;;;30.50;68.50;;;30.54;41.74;100280.53;5013244;28;20719;-68
2023/05/22 09:44:13;;;;;;;8.90;6.63;;;30.20;69.30;;;30.23;42.85;100286.50;5024513;28;21035;-69
2023/05/22 09:46:43;;;;;;;9.17;6.60;;;29.80;70.40;;;30.16;42.15;100289.38;5013994;28;20636;-72
2023/05/22 09:49:10;;;;;;;9.20;7.07;;;29.70;70.40;;;30.16;42.99;100283.16;5016243;28;20763;-67
2023/05/22 09:51:46;;;;;;;11.17;6.77;;;29.70;70.70;;;30.37;42.46;100282.44;5010458;28;20645;-68
2023/05/22 09:54:16;;;;;;;11.10;6.67;;;29.80;70.80;;;30.31;41.83;100280.75;5013105;28;20621;-71
2023/05/22 09:56:44;;;;;;;9.50;6.30;;;29.80;70.20;;;30.24;42.19;100275.50;5028316;28;20633;-69
2023/05/22 09:59:13;;;;;;;10.77;7.47;;;29.80;71.00;;;30.33;41.62;100281.31;5019077;28;20681;-69
2023/05/22 10:01:41;;;;;;;7.50;5.60;;;29.80;70.30;;;30.65;41.05;100272.34;5015742;28;21259;-71
2023/05/22 10:04:13;;;;;;;8.00;5.83;;;30.10;69.80;;;30.85;40.28;100279.03;5022374;28;20589;-72
2023/05/22 10:06:41;;;;;;;9.97;6.03;;;30.30;69.20;;;31.08;39.12;100276.13;5031183;28;20616;-67
2023/05/22 10:09:15;;;;;;;8.20;6.63;;;30.50;67.80;;;31.35;38.68;100274.25;5047641;28;20643;-71
2023/05/22 10:11:46;;;;;;;7.50;6.63;;;30.80;67.40;;;31.47;38.13;100280.34;5039219;28;20707;-68
2023/05/22 10:14:14;;;;;;;7.60;6.07;;;30.80;66.70;;;31.62;38.06;100271.56;5018840;28;20598;-68
2023/05/22 10:16:44;;;;;;;12.80;7.67;;;31.00;66.60;;;31.87;38.25;100269.09;5023214;28;20649;-70